Grand Ruby — 3EIU3 — position and weather

sailwx.info

Track history (hours):
 
Tides and Currents Weather Stations Pressure Air Temp Water Temp Dewpoint Dewpoint Depression Visibility Wind Speed Wind Dir Waves Ship Positions

Grand Ruby

Last reported at 2015-Mar-26 05:26 UTC. Time now 2015-Mar-29 19:40 UTC.
Position N 26°14' W 079°21'.

Length 200 m; draft 9.3 m.

Type: Cargo ship. MMSI: 372399000.

Date/timePositionNaut miles runAvg speedWind from/ knotsBaromVisibWave heightAir tempDewpointWater temp
2015-Mar-26 05:26N 26°14' W 079°21'1516.7
2015-Mar-26 04:33N 26°12' W 079°37'1717.2
2015-Mar-26 03:33N 26°07' W 079°56'1010.0
2015-Mar-26 02:33N 26°05' W 080°07'1 1.0
2015-Mar-26 01:31N 26°04' W 080°07'0 0.0
2015-Mar-26 00:31N 26°04' W 080°07'0 0.0
2015-Mar-25 23:31N 26°04' W 080°07'0 0.0
2015-Mar-25 22:31N 26°04' W 080°07'0 0.0
2015-Mar-25 21:22N 26°04' W 080°07'0 0.0
2015-Mar-25 20:25N 26°04' W 080°07'0 0.0
2015-Mar-25 19:25N 26°04' W 080°07'0 0.0
2015-Mar-25 18:25N 26°04' W 080°07'0 0.0
2015-Mar-25 17:28N 26°04' W 080°07'0 0.0
2015-Mar-25 16:28N 26°04' W 080°07'0 0.0
2015-Mar-25 15:28N 26°04' W 080°07'0 0.0
2015-Mar-25 14:31N 26°04' W 080°07'0 0.0
2015-Mar-25 13:31N 26°04' W 080°07'0 0.0
2015-Mar-25 12:31N 26°04' W 080°07'0 0.0
2015-Mar-25 11:31N 26°04' W 080°07'0 0.0
2015-Mar-25 10:31N 26°04' W 080°07'1 0.9
2015-Mar-25 09:33N 26°05' W 080°07'4 4.0
2015-Mar-25 08:33N 26°06' W 080°02'2 2.2
2015-Mar-25 07:33N 26°07' W 080°00'1212.1
2015-Mar-25 06:33N 26°16' W 079°51'1313.2
2015-Mar-25 05:33N 26°29' W 079°50'1414.1
2015-Mar-25 04:33N 26°43' W 079°50'1414.5
2015-Mar-25 03:34N 26°58' W 079°50'1414.4
2015-Mar-25 02:34N 27°12' W 079°50'  
2015-Mar-22 00:07N 38°46' W 076°26'915.9
2015-Mar-21 23:34N 38°54' W 076°24'1413.8
2015-Mar-21 22:33N 39°08' W 076°24'9 8.7
2015-Mar-21 21:34N 39°14' W 076°32'0 0.0
2015-Mar-21 20:33N 39°14' W 076°32'0 0.0
2015-Mar-21 19:34N 39°14' W 076°32'0 0.0
2015-Mar-21 18:33N 39°14' W 076°32'0 0.0
2015-Mar-21 17:34N 39°14' W 076°32'0 0.0
2015-Mar-21 16:33N 39°14' W 076°32'0 0.0
2015-Mar-21 15:33N 39°14' W 076°32'0 0.0
2015-Mar-21 14:33N 39°14' W 076°32'0 0.0
2015-Mar-21 13:34N 39°14' W 076°32'0 0.0
2015-Mar-21 12:33N 39°14' W 076°32'0 0.0
2015-Mar-21 11:30N 39°14' W 076°32'0 0.0
2015-Mar-21 10:33N 39°14' W 076°32'0 0.0
2015-Mar-21 09:34N 39°14' W 076°32'0 0.0
2015-Mar-21 08:33N 39°14' W 076°32'0 0.0
2015-Mar-21 07:33N 39°14' W 076°32'0 0.0
2015-Mar-21 06:31N 39°14' W 076°32'2 2.5
2015-Mar-21 05:34N 39°12' W 076°31'1110.7
2015-Mar-21 04:34N 39°11' W 076°17'1212.2
2015-Mar-21 03:33N 39°22' W 076°09'1312.6
2015-Mar-21 02:33N 39°29' W 075°56'7 7.1
2015-Mar-21 01:34N 39°32' W 075°48'8 7.8
2015-Mar-21 00:34N 39°33' W 075°38'4 4.2
2015-Mar-20 23:34N 39°31' W 075°33'3 2.9
2015-Mar-20 22:34N 39°28' W 075°34'9 8.7
2015-Mar-20 21:34N 39°21' W 075°27'1313.4
2015-Mar-20 20:34N 39°11' W 075°16'1515.2
2015-Mar-20 19:34N 38°57' W 075°07'1111.0
2015-Mar-20 18:33N 38°47' W 075°01'10 9.9
2015-Mar-20 17:33N 38°48' W 074°49'1010.0
2015-Mar-20 16:33N 38°48' W 074°36'10014.2
2015-Mar-20 09:30N 39°54' W 072°58'1816.7
2015-Mar-20 08:27N 40°05' W 072°41'1516.7
2015-Mar-20 07:33N 40°15' W 072°27'1616.5
2015-Mar-20 06:33N 40°26' W 072°11'1717.1
2015-Mar-20 05:33N 40°37' W 071°53'1414.1
2015-Mar-20 04:33N 40°47' W 071°40'1010.0
2015-Mar-20 03:33N 40°54' W 071°31'1010.1
2015-Mar-20 02:33N 41°03' W 071°24'1010.2
2015-Mar-20 01:33N 41°13' W 071°25'1010.3
2015-Mar-20 00:33N 41°23' W 071°25'1111.3
2015-Mar-19 23:33N 41°35' W 071°22'3 2.8
2015-Mar-19 22:31N 41°37' W 071°24'0 0.0
2015-Mar-19 21:32N 41°37' W 071°24'0 0.0
2015-Mar-19 20:31N 41°37' W 071°24'0 0.0
2015-Mar-19 19:32N 41°37' W 071°24'0 0.0
2015-Mar-19 18:31N 41°37' W 071°24'0 0.0
2015-Mar-19 17:31N 41°37' W 071°24'0 0.0
2015-Mar-19 16:32N 41°37' W 071°24'0 0.0
2015-Mar-19 15:31N 41°37' W 071°24'0 0.0
2015-Mar-19 14:31N 41°37' W 071°24'0 0.0
2015-Mar-19 13:31N 41°37' W 071°24'0 0.0
2015-Mar-19 12:31N 41°37' W 071°24'0 0.0
2015-Mar-19 11:31N 41°37' W 071°24'0 0.4
2015-Mar-19 10:33N 41°37' W 071°24'9 8.5
2015-Mar-19 09:33N 41°28' W 071°22'7 6.6
2015-Mar-19 08:33N 41°22' W 071°20'1 1.5
2015-Mar-19 07:33N 41°20' W 071°21'3 3.3
2015-Mar-19 06:33N 41°17' W 071°21'4 4.0
2015-Mar-19 05:33N 41°13' W 071°21'4 4.1
2015-Mar-19 04:34N 41°09' W 071°20'4 4.0
2015-Mar-19 03:33N 41°07' W 071°16'3 3.4
2015-Mar-19 02:33N 41°04' W 071°13'3 2.8
2015-Mar-19 01:33N 41°03' W 071°10'2 2.3
2015-Mar-19 00:34N 41°01' W 071°07'3 2.6
2015-Mar-18 23:34N 40°60' W 071°04'4 3.8
2015-Mar-18 22:33N 40°57' W 071°00'6 6.3
2015-Mar-18 21:33N 40°54' W 070°54'7 6.5
2015-Mar-18 20:31N 40°49' W 070°47'7 6.4
2015-Mar-18 19:25N 40°45' W 070°40'  
Track history (hours):
 
Tides and Currents Weather Stations Pressure Air Temp Water Temp Dewpoint Dewpoint Depression Visibility Wind Speed Wind Dir Waves Ship Positions

Grand Ruby

Last reported at 2015-Mar-26 05:26 UTC. Time now 2015-Mar-29 19:40 UTC.
Position N 26°14' W 079°21'.

Length 200 m; draft 9.3 m.

Type: Cargo ship. MMSI: 372399000.

Date/timePositionNaut miles runAvg speedWind from/ knotsBaromVisibWave heightAir tempDewpointWater temp
2015-Mar-26 05:26N 26°14' W 079°21'1516.7
2015-Mar-26 04:33N 26°12' W 079°37'1717.2
2015-Mar-26 03:33N 26°07' W 079°56'1010.0
2015-Mar-26 02:33N 26°05' W 080°07'1 1.0
2015-Mar-26 01:31N 26°04' W 080°07'0 0.0
2015-Mar-26 00:31N 26°04' W 080°07'0 0.0
2015-Mar-25 23:31N 26°04' W 080°07'0 0.0
2015-Mar-25 22:31N 26°04' W 080°07'0 0.0
2015-Mar-25 21:22N 26°04' W 080°07'0 0.0
2015-Mar-25 20:25N 26°04' W 080°07'0 0.0
2015-Mar-25 19:25N 26°04' W 080°07'0 0.0
2015-Mar-25 18:25N 26°04' W 080°07'0 0.0
2015-Mar-25 17:28N 26°04' W 080°07'0 0.0
2015-Mar-25 16:28N 26°04' W 080°07'0 0.0
2015-Mar-25 15:28N 26°04' W 080°07'0 0.0
2015-Mar-25 14:31N 26°04' W 080°07'0 0.0
2015-Mar-25 13:31N 26°04' W 080°07'0 0.0
2015-Mar-25 12:31N 26°04' W 080°07'0 0.0
2015-Mar-25 11:31N 26°04' W 080°07'0 0.0
2015-Mar-25 10:31N 26°04' W 080°07'1 0.9
2015-Mar-25 09:33N 26°05' W 080°07'4 4.0
2015-Mar-25 08:33N 26°06' W 080°02'2 2.2
2015-Mar-25 07:33N 26°07' W 080°00'1212.1
2015-Mar-25 06:33N 26°16' W 079°51'1313.2
2015-Mar-25 05:33N 26°29' W 079°50'1414.1
2015-Mar-25 04:33N 26°43' W 079°50'1414.5
2015-Mar-25 03:34N 26°58' W 079°50'1414.4
2015-Mar-25 02:34N 27°12' W 079°50'  
2015-Mar-22 00:07N 38°46' W 076°26'915.9
2015-Mar-21 23:34N 38°54' W 076°24'1413.8
2015-Mar-21 22:33N 39°08' W 076°24'9 8.7
2015-Mar-21 21:34N 39°14' W 076°32'0 0.0
2015-Mar-21 20:33N 39°14' W 076°32'0 0.0
2015-Mar-21 19:34N 39°14' W 076°32'0 0.0
2015-Mar-21 18:33N 39°14' W 076°32'0 0.0
2015-Mar-21 17:34N 39°14' W 076°32'0 0.0
2015-Mar-21 16:33N 39°14' W 076°32'0 0.0
2015-Mar-21 15:33N 39°14' W 076°32'0 0.0
2015-Mar-21 14:33N 39°14' W 076°32'0 0.0
2015-Mar-21 13:34N 39°14' W 076°32'0 0.0
2015-Mar-21 12:33N 39°14' W 076°32'0 0.0
2015-Mar-21 11:30N 39°14' W 076°32'0 0.0
2015-Mar-21 10:33N 39°14' W 076°32'0 0.0
2015-Mar-21 09:34N 39°14' W 076°32'0 0.0
2015-Mar-21 08:33N 39°14' W 076°32'0 0.0
2015-Mar-21 07:33N 39°14' W 076°32'0 0.0
2015-Mar-21 06:31N 39°14' W 076°32'2 2.5
2015-Mar-21 05:34N 39°12' W 076°31'1110.7
2015-Mar-21 04:34N 39°11' W 076°17'1212.2
2015-Mar-21 03:33N 39°22' W 076°09'1312.6
2015-Mar-21 02:33N 39°29' W 075°56'7 7.1
2015-Mar-21 01:34N 39°32' W 075°48'8 7.8
2015-Mar-21 00:34N 39°33' W 075°38'4 4.2
2015-Mar-20 23:34N 39°31' W 075°33'3 2.9
2015-Mar-20 22:34N 39°28' W 075°34'9 8.7
2015-Mar-20 21:34N 39°21' W 075°27'1313.4
2015-Mar-20 20:34N 39°11' W 075°16'1515.2
2015-Mar-20 19:34N 38°57' W 075°07'1111.0
2015-Mar-20 18:33N 38°47' W 075°01'10 9.9
2015-Mar-20 17:33N 38°48' W 074°49'1010.0
2015-Mar-20 16:33N 38°48' W 074°36'10014.2
2015-Mar-20 09:30N 39°54' W 072°58'1816.7
2015-Mar-20 08:27N 40°05' W 072°41'1516.7
2015-Mar-20 07:33N 40°15' W 072°27'1616.5
2015-Mar-20 06:33N 40°26' W 072°11'1717.1
2015-Mar-20 05:33N 40°37' W 071°53'1414.1
2015-Mar-20 04:33N 40°47' W 071°40'1010.0
2015-Mar-20 03:33N 40°54' W 071°31'1010.1
2015-Mar-20 02:33N 41°03' W 071°24'1010.2
2015-Mar-20 01:33N 41°13' W 071°25'1010.3
2015-Mar-20 00:33N 41°23' W 071°25'1111.3
2015-Mar-19 23:33N 41°35' W 071°22'3 2.8
2015-Mar-19 22:31N 41°37' W 071°24'0 0.0
2015-Mar-19 21:32N 41°37' W 071°24'0 0.0
2015-Mar-19 20:31N 41°37' W 071°24'0 0.0
2015-Mar-19 19:32N 41°37' W 071°24'0 0.0
2015-Mar-19 18:31N 41°37' W 071°24'0 0.0
2015-Mar-19 17:31N 41°37' W 071°24'0 0.0
2015-Mar-19 16:32N 41°37' W 071°24'0 0.0
2015-Mar-19 15:31N 41°37' W 071°24'0 0.0
2015-Mar-19 14:31N 41°37' W 071°24'0 0.0
2015-Mar-19 13:31N 41°37' W 071°24'0 0.0
2015-Mar-19 12:31N 41°37' W 071°24'0 0.0
2015-Mar-19 11:31N 41°37' W 071°24'0 0.4
2015-Mar-19 10:33N 41°37' W 071°24'9 8.5
2015-Mar-19 09:33N 41°28' W 071°22'7 6.6
2015-Mar-19 08:33N 41°22' W 071°20'1 1.5
2015-Mar-19 07:33N 41°20' W 071°21'3 3.3
2015-Mar-19 06:33N 41°17' W 071°21'4 4.0
2015-Mar-19 05:33N 41°13' W 071°21'4 4.1
2015-Mar-19 04:34N 41°09' W 071°20'4 4.0
2015-Mar-19 03:33N 41°07' W 071°16'3 3.4
2015-Mar-19 02:33N 41°04' W 071°13'3 2.8
2015-Mar-19 01:33N 41°03' W 071°10'2 2.3
2015-Mar-19 00:34N 41°01' W 071°07'3 2.6
2015-Mar-18 23:34N 40°60' W 071°04'4 3.8
2015-Mar-18 22:33N 40°57' W 071°00'6 6.3
2015-Mar-18 21:33N 40°54' W 070°54'7 6.5
2015-Mar-18 20:31N 40°49' W 070°47'7 6.4
2015-Mar-18 19:25N 40°45' W 070°40'  

Dump ship's entire track history